createdAt,value
2019-02-26T00:02:02.548Z,1.26
2019-02-26T00:04:36.901Z,1.34
2019-02-26T00:07:14.257Z,1.34
2019-02-26T00:09:45.152Z,1.59
2019-02-26T00:12:59.276Z,1.50
2019-02-26T00:19:02.690Z,1.51
2019-02-26T00:21:38.344Z,1.46
2019-02-26T00:24:14.516Z,1.51
2019-02-26T01:05:12.952Z,0.87
2019-02-26T01:07:51.476Z,0.84
2019-02-26T01:10:23.765Z,0.88
2019-02-26T01:37:36.518Z,0.95
2019-02-26T01:40:29.890Z,1.00
2019-02-26T01:43:05.636Z,0.95
2019-02-26T01:45:40.651Z,0.91
2019-02-26T01:48:18.048Z,0.93
2019-02-26T01:50:59.157Z,0.94
2019-02-26T01:53:32.984Z,0.93
2019-02-26T01:56:06.185Z,0.95
2019-02-26T01:58:42.297Z,0.99
2019-02-26T02:01:21.397Z,1.01
2019-02-26T02:03:56.153Z,1.07
2019-02-26T02:06:32.567Z,1.13
2019-02-26T02:09:11.283Z,1.08
2019-02-26T02:11:46.628Z,0.98
2019-02-26T02:14:21.218Z,0.82
2019-02-26T02:16:53.790Z,0.86
2019-02-26T02:19:30.927Z,0.80
2019-02-26T02:22:05.846Z,0.73
2019-02-26T02:24:43.479Z,0.70
2019-02-26T05:29:28.748Z,0.01
2019-02-26T05:32:03.602Z,-0.14
2019-02-26T05:34:43.434Z,-0.14
2019-02-26T05:37:15.646Z,-0.14
2019-02-26T05:39:54.422Z,-0.21
2019-02-26T05:42:48.621Z,-0.24
2019-02-26T05:45:23.735Z,-0.17
2019-02-26T05:48:04.965Z,-0.10
2019-02-26T05:50:42.156Z,0.00
2019-02-26T05:53:15.385Z,0.08
2019-02-26T05:56:20.687Z,0.10
2019-02-26T05:59:24.988Z,0.20
2019-02-26T06:02:00.110Z,0.16
2019-02-26T06:04:35.697Z,0.21
2019-02-26T06:07:24.113Z,0.31
2019-02-26T06:10:19.521Z,0.24
2019-02-26T06:13:04.997Z,0.19
2019-02-26T06:15:40.848Z,0.31
2019-02-26T06:18:14.892Z,0.39
2019-02-26T06:21:05.671Z,0.19
2019-02-26T06:23:56.933Z,0.40
2019-02-26T06:26:49.511Z,0.45
2019-02-26T06:29:24.733Z,0.40
2019-02-26T06:32:12.689Z,0.38
2019-02-26T06:34:46.447Z,0.32
2019-02-26T06:37:23.305Z,0.29
2019-02-26T06:39:59.396Z,0.13
2019-02-26T06:42:35.167Z,0.04
2019-02-26T06:45:21.396Z,0.19
2019-02-26T06:47:56.419Z,-0.01
2019-02-26T06:50:32.224Z,0.18
2019-02-26T06:53:09.113Z,0.28
2019-02-26T06:55:43.191Z,0.32
2019-02-26T06:58:25.857Z,0.40
2019-02-26T07:01:00.615Z,0.41
2019-02-26T07:03:35.107Z,0.52
2019-02-26T07:06:10.449Z,0.53
2019-02-26T07:09:02.174Z,0.48
2019-02-26T07:11:49.325Z,0.47
2019-02-26T07:14:41.554Z,0.50
2019-02-26T07:17:15.068Z,0.47
2019-02-26T07:19:51.233Z,0.54
2019-02-26T07:22:47.179Z,0.63
2019-02-26T07:25:22.323Z,0.65
2019-02-26T07:27:58.061Z,0.67
2019-02-26T07:30:44.720Z,0.65
2019-02-26T07:33:30.589Z,0.60
2019-02-26T07:36:04.793Z,0.64
2019-02-26T07:38:41.539Z,0.81
2019-02-26T07:41:14.669Z,0.93
2019-02-26T07:43:49.300Z,0.91
2019-02-26T07:46:24.165Z,0.86
2019-02-26T07:48:59.899Z,1.02
2019-02-26T07:51:36.243Z,1.15
2019-02-26T07:54:09.416Z,1.21
2019-02-26T07:56:43.367Z,1.27
2019-02-26T07:59:27.276Z,1.41
2019-02-26T08:01:53.729Z,1.51
2019-02-26T08:04:27.710Z,1.70
2019-02-26T08:07:19.154Z,1.93
2019-02-26T08:09:54.580Z,2.01
2019-02-26T08:12:40.901Z,2.21
2019-02-26T08:15:16.291Z,2.18
2019-02-26T08:17:55.237Z,2.33
2019-02-26T08:20:27.891Z,2.47
2019-02-26T08:23:01.486Z,2.65
2019-02-26T08:25:36.030Z,2.79
2019-02-26T08:28:10.072Z,2.93
2019-02-26T08:30:49.827Z,3.10
2019-02-26T08:33:24.815Z,3.25
2019-02-26T08:35:58.872Z,3.39
2019-02-26T08:38:33.047Z,3.45
2019-02-26T08:41:06.849Z,3.56
2019-02-26T08:43:44.157Z,3.71
2019-02-26T08:46:18.955Z,3.83
2019-02-26T08:48:53.275Z,3.88
2019-02-26T08:51:34.258Z,4.02
2019-02-26T08:54:26.167Z,4.20
2019-02-26T08:57:18.225Z,4.28
2019-02-26T09:00:00.908Z,4.42
2019-02-26T09:02:41.870Z,4.55
2019-02-26T09:05:36.826Z,4.70
2019-02-26T09:08:18.536Z,4.71
2019-02-26T09:11:00.956Z,4.76
2019-02-26T09:13:53.119Z,4.91
2019-02-26T09:16:33.564Z,4.94
2019-02-26T09:19:14.397Z,5.12
2019-02-26T09:22:18.735Z,5.27
2019-02-26T09:24:59.923Z,5.37
2019-02-26T09:27:42.915Z,5.41
2019-02-26T09:30:40.783Z,5.59
2019-02-26T09:33:25.002Z,5.58
2019-02-26T09:36:05.871Z,5.73
2019-02-26T09:39:08.728Z,5.96
2019-02-26T09:41:50.979Z,6.10
2019-02-26T09:44:45.330Z,6.39
2019-02-26T09:47:33.482Z,6.46
2019-02-26T09:50:12.839Z,6.61
2019-02-26T09:52:58.738Z,6.83
2019-02-26T09:55:51.901Z,7.07
2019-02-26T09:58:31.844Z,7.15
2019-02-26T10:01:11.613Z,7.22
2019-02-26T10:03:54.178Z,7.37
2019-02-26T10:06:34.958Z,7.51
2019-02-26T10:09:16.246Z,7.62
2019-02-26T10:12:09.967Z,8.01
2019-02-26T10:15:07.958Z,8.07
2019-02-26T10:17:48.878Z,8.32
2019-02-26T10:20:31.398Z,8.47
2019-02-26T10:23:08.631Z,8.49
2019-02-26T10:26:05.769Z,8.87
2019-02-26T10:28:53.627Z,9.02
2019-02-26T10:31:40.995Z,9.25
2019-02-26T10:34:33.010Z,9.41
2019-02-26T10:37:14.615Z,9.51
2019-02-26T10:40:09.595Z,9.64
2019-02-26T10:42:48.902Z,9.72
2019-02-26T10:45:29.182Z,9.79
2019-02-26T10:48:22.765Z,10.24
2019-02-26T10:51:12.438Z,10.40
2019-02-26T10:54:08.934Z,10.65
2019-02-26T10:57:07.681Z,10.80
2019-02-26T10:59:46.174Z,10.87
2019-02-26T11:02:28.057Z,10.97
2019-02-26T11:05:28.608Z,11.30
2019-02-26T11:08:28.929Z,11.33
2019-02-26T11:11:09.830Z,11.23
2019-02-26T11:13:53.240Z,11.45
2019-02-26T11:16:31.008Z,11.49
2019-02-26T11:19:13.099Z,11.59
2019-02-26T11:21:55.990Z,11.54
2019-02-26T11:24:53.422Z,11.64
2019-02-26T11:38:12.352Z,12.51
2019-02-26T11:40:50.647Z,12.49
2019-02-26T11:43:30.243Z,12.57
2019-02-26T11:46:09.025Z,12.50
2019-02-26T11:48:50.134Z,12.51
2019-02-26T11:51:37.142Z,12.60
2019-02-26T11:54:15.021Z,12.86
2019-02-26T11:56:56.177Z,13.14
2019-02-26T11:59:38.598Z,13.33
2019-02-26T12:02:41.040Z,13.49
2019-02-26T12:05:36.679Z,13.66
2019-02-26T12:08:17.407Z,13.61
2019-02-26T12:11:12.671Z,13.98
2019-02-26T12:13:53.173Z,13.93
2019-02-26T12:16:33.216Z,14.08
2019-02-26T12:19:31.102Z,13.99
2019-02-26T12:22:10.176Z,13.99
2019-02-26T12:24:55.807Z,13.87
2019-02-26T12:27:32.643Z,14.20
2019-02-26T12:30:18.127Z,14.41
2019-02-26T12:33:12.354Z,14.45
2019-02-26T12:35:56.326Z,14.40
2019-02-26T12:38:59.202Z,14.61
2019-02-26T12:41:41.740Z,14.68
2019-02-26T12:44:22.664Z,14.65
2019-02-26T12:47:00.756Z,14.69
2019-02-26T12:49:53.393Z,14.65
2019-02-26T12:52:34.514Z,14.69
2019-02-26T12:55:35.871Z,14.98
2019-02-26T12:58:34.201Z,15.07
2019-02-26T13:01:14.845Z,14.93
2019-02-26T13:04:16.680Z,14.84
2019-02-26T13:07:09.300Z,15.03
2019-02-26T13:09:47.953Z,15.22
2019-02-26T13:12:38.440Z,15.35
2019-02-26T13:15:29.162Z,15.12
2019-02-26T13:18:09.292Z,15.30
2019-02-26T13:20:56.844Z,15.48
2019-02-26T13:23:30.607Z,15.57
2019-02-26T13:26:10.889Z,15.70
2019-02-26T13:29:00.337Z,15.74
2019-02-26T13:34:14.235Z,15.57
2019-02-26T13:37:04.408Z,15.91
2019-02-26T13:39:41.409Z,15.87
2019-02-26T13:42:19.134Z,16.13
2019-02-26T13:45:02.699Z,16.22
2019-02-26T13:47:36.940Z,16.11
2019-02-26T13:50:12.659Z,16.19
2019-02-26T13:52:58.551Z,16.18
2019-02-26T13:55:32.080Z,16.25
2019-02-26T13:58:17.532Z,16.16
2019-02-26T14:01:02.679Z,16.32
2019-02-26T14:03:47.435Z,16.42
2019-02-26T14:06:21.206Z,16.35
2019-02-26T14:08:55.789Z,16.21
2019-02-26T14:11:30.060Z,15.99
2019-02-26T14:14:03.826Z,15.99
2019-02-26T14:16:56.001Z,16.23
2019-02-26T14:19:41.154Z,16.29
2019-02-26T14:22:15.422Z,16.21
2019-02-26T14:25:05.613Z,16.20
2019-02-26T14:27:40.943Z,16.01
2019-02-26T14:30:13.324Z,16.01
2019-02-26T14:32:59.048Z,15.98
2019-02-26T14:35:32.537Z,15.89
2019-02-26T14:38:25.185Z,15.79
2019-02-26T14:41:00.074Z,15.84
2019-02-26T14:43:34.126Z,15.79
2019-02-26T14:46:06.339Z,15.75
2019-02-26T14:48:52.647Z,15.75
2019-02-26T14:51:37.860Z,15.78
2019-02-26T14:54:29.638Z,15.66
2019-02-26T14:57:03.594Z,15.65
2019-02-26T14:59:52.248Z,15.69
2019-02-26T15:03:13.640Z,15.66
2019-02-26T15:05:48.514Z,15.59
2019-02-26T15:08:22.998Z,15.48
2019-02-26T15:11:14.667Z,15.49
2019-02-26T15:14:01.050Z,15.44
2019-02-26T15:16:35.162Z,15.43
2019-02-26T15:19:08.727Z,15.47
2019-02-26T15:21:43.183Z,15.47
2019-02-26T15:24:33.813Z,15.45
2019-02-26T15:27:24.103Z,15.38
2019-02-26T15:30:14.405Z,15.38
2019-02-26T15:33:10.821Z,15.43
2019-02-26T15:35:55.100Z,15.34
2019-02-26T15:38:44.817Z,15.28
2019-02-26T15:41:34.233Z,15.20
2019-02-26T15:44:23.612Z,15.17
2019-02-26T15:47:13.109Z,15.09
2019-02-26T15:50:03.006Z,15.07
2019-02-26T15:52:53.708Z,14.98
2019-02-26T15:55:43.118Z,14.89
2019-02-26T15:58:34.146Z,14.84
2019-02-26T16:01:23.795Z,14.68
2019-02-26T16:03:58.044Z,14.54
2019-02-26T16:06:31.697Z,14.41
2019-02-26T16:09:07.011Z,14.30
2019-02-26T16:12:03.286Z,14.27
2019-02-26T16:14:41.557Z,14.09
2019-02-26T16:17:31.905Z,13.98
2019-02-26T16:20:10.017Z,13.85
2019-02-26T16:22:59.454Z,13.87
2019-02-26T16:25:38.283Z,13.60
2019-02-26T16:28:24.694Z,13.44
2019-02-26T16:31:10.367Z,13.27
2019-02-26T16:33:46.411Z,13.23
2019-02-26T16:36:20.538Z,13.01
2019-02-26T16:38:54.393Z,12.89
2019-02-26T16:41:27.960Z,12.75
2019-02-26T16:44:01.580Z,12.48
2019-02-26T16:46:37.000Z,12.29
2019-02-26T16:49:10.431Z,12.02
2019-02-26T16:51:43.585Z,11.78
2019-02-26T16:54:17.489Z,11.64
2019-02-26T16:56:55.236Z,11.51
2019-02-26T16:59:43.512Z,11.31
2019-02-26T17:02:16.988Z,11.08
2019-02-26T17:04:50.182Z,11.02
2019-02-26T17:07:23.870Z,10.89
2019-02-26T17:09:57.650Z,10.85
2019-02-26T17:12:31.723Z,10.60
2019-02-26T17:15:05.010Z,10.44
2019-02-26T17:17:38.090Z,10.22
2019-02-26T17:20:11.728Z,10.14
2019-02-26T17:22:45.306Z,10.05
2019-02-26T17:25:20.464Z,9.87
2019-02-26T17:27:55.601Z,9.60
2019-02-26T17:30:28.857Z,9.47
2019-02-26T17:33:00.708Z,9.43
2019-02-26T17:35:45.348Z,9.26
2019-02-26T17:38:19.523Z,9.02
2019-02-26T17:40:53.001Z,8.82
2019-02-26T17:43:26.547Z,8.70
2019-02-26T17:46:00.356Z,8.71
2019-02-26T17:48:43.695Z,8.64
2019-02-26T17:51:19.067Z,8.53
2019-02-26T17:53:52.514Z,8.38
2019-02-26T17:56:26.607Z,8.37
2019-02-26T17:59:18.578Z,8.17
2019-02-26T18:02:01.310Z,8.13
2019-02-26T18:04:44.111Z,7.97
2019-02-26T18:07:17.943Z,7.75
2019-02-26T18:09:51.078Z,7.58
2019-02-26T18:12:24.804Z,7.65
2019-02-26T18:14:57.464Z,7.49
2019-02-26T18:17:31.214Z,7.38
2019-02-26T18:20:17.365Z,7.28
2019-02-26T18:22:50.838Z,7.35
2019-02-26T18:25:24.695Z,7.34
2019-02-26T18:27:58.936Z,7.41
2019-02-26T18:30:41.087Z,7.35
2019-02-26T18:33:14.990Z,7.04
2019-02-26T18:35:59.297Z,6.79
2019-02-26T18:38:33.258Z,6.56
2019-02-26T18:41:15.998Z,6.50
2019-02-26T18:44:07.122Z,6.32
2019-02-26T18:46:41.053Z,6.20
2019-02-26T18:49:14.261Z,6.11
2019-02-26T18:51:49.757Z,6.21
2019-02-26T18:54:23.452Z,6.10
2019-02-26T18:56:56.644Z,6.09
2019-02-26T18:59:30.370Z,6.18
2019-02-26T19:02:04.515Z,6.03
2019-02-26T19:04:38.116Z,6.06
2019-02-26T19:07:11.642Z,5.98
2019-02-26T19:09:45.640Z,6.08
2019-02-26T20:24:33.459Z,3.93
2019-02-26T20:27:06.954Z,3.85
2019-02-26T20:29:40.398Z,3.58
2019-02-26T20:32:13.143Z,3.64
2019-02-26T21:17:46.206Z,3.02
2019-02-26T22:42:45.925Z,1.91
2019-02-26T22:45:22.190Z,1.98
2019-02-26T22:47:55.079Z,1.99
2019-02-26T22:50:28.896Z,2.04
2019-02-26T23:09:17.876Z,1.88
2019-02-26T23:11:52.196Z,1.88
2019-02-26T23:14:25.857Z,1.91
2019-02-26T23:16:58.717Z,1.91
2019-02-26T23:19:36.458Z,1.98
2019-02-26T23:22:08.563Z,1.88
2019-02-26T23:24:54.808Z,1.97
2019-02-26T23:27:28.704Z,1.90
2019-02-26T23:30:20.745Z,1.80
2019-02-26T23:33:15.016Z,1.84
2019-02-26T23:36:04.750Z,1.87
2019-02-26T23:38:37.264Z,1.80
